Time;durP1;ratioP1;P1;durP2;ratioP2;P2;SDS_P1;SDS_P2;PMS_P1;PMS_P2;Temp;Humidity;BMP_temperature;BMP_pressure;BME280_temperature;BME280_humidity;BME280_pressure;Samples;Min_cycle;Max_cycle;Signal;HPM_P1;HPM_P2
2021/09/19 00:00:09;;;;;;;10.23;3.00;;;14.20;99.90;;;;;;4142975;28;20497;-68
2021/09/19 00:02:10;;;;;;;4.70;2.80;;;14.10;99.90;;;;;;4142194;28;20437;-69
2021/09/19 00:04:11;;;;;;;3.50;2.30;;;14.10;99.90;;;;;;4142746;28;20113;-71
2021/09/19 00:06:12;;;;;;;6.60;2.80;;;14.10;99.90;;;;;;4142634;28;20050;-68
2021/09/19 00:08:14;;;;;;;3.10;2.80;;;14.00;99.90;;;;;;4142618;28;20050;-70
2021/09/19 00:10:17;;;;;;;5.67;2.93;;;14.00;99.90;;;;;;4142435;28;20034;-70
2021/09/19 00:12:18;;;;;;;4.10;3.17;;;13.90;99.90;;;;;;4142439;28;20060;-73
2021/09/19 00:14:19;;;;;;;8.73;2.80;;;13.90;99.90;;;;;;4143095;28;20143;-69
2021/09/19 00:16:20;;;;;;;3.87;2.57;;;13.90;99.90;;;;;;4141916;28;20096;-68
2021/09/19 00:18:22;;;;;;;5.03;3.10;;;13.80;99.90;;;;;;4142907;28;20069;-69
2021/09/19 00:20:23;;;;;;;6.00;3.00;;;13.80;99.90;;;;;;4142294;28;20038;-69
2021/09/19 00:22:24;;;;;;;4.90;3.13;;;13.80;99.90;;;;;;4143105;28;20038;-68
2021/09/19 00:24:26;;;;;;;5.27;2.90;;;13.80;99.90;;;;;;4141719;28;20041;-69
2021/09/19 00:26:27;;;;;;;6.83;3.50;;;13.80;99.90;;;;;;4141230;28;20053;-68
2021/09/19 00:28:29;;;;;;;7.40;3.73;;;13.80;99.90;;;;;;4141895;28;20073;-70
2021/09/19 00:30:30;;;;;;;3.93;2.90;;;13.80;99.90;;;;;;4143245;28;20089;-70
2021/09/19 00:32:32;;;;;;;3.50;2.70;;;13.80;99.90;;;;;;4141412;28;20038;-69
2021/09/19 00:34:33;;;;;;;6.17;3.00;;;13.70;99.90;;;;;;4142356;28;20481;-67
2021/09/19 00:36:34;;;;;;;2.80;2.40;;;13.70;99.90;;;;;;4141884;28;20105;-68
2021/09/19 00:38:35;;;;;;;4.93;3.00;;;13.70;99.90;;;;;;4142407;28;20022;-68
2021/09/19 00:40:36;;;;;;;3.97;2.83;;;13.70;99.90;;;;;;4142270;28;20425;-68
2021/09/19 00:42:37;;;;;;;3.83;2.73;;;13.70;99.90;;;;;;4141390;28;20046;-69
2021/09/19 00:44:38;;;;;;;5.67;3.13;;;13.70;99.90;;;;;;4142738;28;20538;-69
2021/09/19 00:46:40;;;;;;;5.40;2.53;;;13.70;99.90;;;;;;4140861;28;20104;-69
2021/09/19 00:48:41;;;;;;;5.87;2.60;;;13.70;99.90;;;;;;4142635;28;20096;-69
2021/09/19 00:50:42;;;;;;;5.33;2.50;;;13.80;99.90;;;;;;4141729;28;20077;-69
2021/09/19 00:52:45;;;;;;;4.33;2.80;;;13.80;99.90;;;;;;4142289;28;20092;-68
2021/09/19 00:54:49;;;;;;;3.27;2.60;;;13.80;99.90;;;;;;4141312;28;20027;-69
2021/09/19 00:56:56;;;;;;;3.10;2.80;;;13.80;99.90;;;;;;4142838;28;20034;-70
2021/09/19 00:58:58;;;;;;;3.77;2.67;;;13.90;99.90;;;;;;4141240;28;20087;-69
2021/09/19 01:01:01;;;;;;;4.10;2.60;;;13.80;99.90;;;;;;4142655;28;20041;-68
2021/09/19 01:03:02;;;;;;;6.13;3.43;;;13.70;99.90;;;;;;4140607;28;20042;-69
2021/09/19 01:05:04;;;;;;;3.83;2.60;;;13.70;99.90;;;;;;4142437;28;20277;-68
2021/09/19 01:07:06;;;;;;;3.70;3.13;;;13.70;99.90;;;;;;4141042;28;20038;-71
2021/09/19 01:09:08;;;;;;;4.17;2.77;;;13.70;99.90;;;;;;4142208;28;20096;-69
2021/09/19 01:11:14;;;;;;;4.37;2.70;;;13.60;99.90;;;;;;4141466;28;20026;-69
2021/09/19 01:13:15;;;;;;;4.07;2.57;;;13.60;99.90;;;;;;4141913;28;20478;-70
2021/09/19 01:15:17;;;;;;;3.23;2.50;;;13.60;99.90;;;;;;4141763;28;20436;-71
2021/09/19 01:17:19;;;;;;;3.40;2.63;;;13.60;99.90;;;;;;4141210;28;20108;-70
2021/09/19 01:19:24;;;;;;;3.63;2.73;;;13.60;99.90;;;;;;4141801;28;20523;-69
2021/09/19 01:21:25;;;;;;;3.17;2.50;;;13.70;99.90;;;;;;4141045;28;20469;-68
2021/09/19 01:23:29;;;;;;;2.57;2.17;;;13.60;99.90;;;;;;4142170;28;20988;-69
2021/09/19 01:25:32;;;;;;;3.90;2.53;;;13.60;99.90;;;;;;4140502;28;20076;-69
2021/09/19 01:27:34;;;;;;;3.00;2.50;;;13.60;99.90;;;;;;4142406;28;20050;-70
2021/09/19 01:29:35;;;;;;;3.40;2.47;;;13.60;99.90;;;;;;4140731;28;20584;-68
2021/09/19 01:31:38;;;;;;;2.67;2.30;;;13.60;99.90;;;;;;4141936;28;20099;-68
2021/09/19 01:33:39;;;;;;;3.87;2.53;;;13.60;99.90;;;;;;4140325;28;20026;-68
2021/09/19 01:35:41;;;;;;;4.83;2.70;;;13.60;99.90;;;;;;4142131;28;20100;-69
2021/09/19 01:37:43;;;;;;;2.33;1.90;;;13.60;99.90;;;;;;4139572;28;20088;-70
2021/09/19 01:39:44;;;;;;;5.10;2.93;;;13.50;99.90;;;;;;4142193;28;20030;-69
2021/09/19 01:41:48;;;;;;;2.80;2.27;;;13.50;99.90;;;;;;4141026;28;20046;-71
2021/09/19 01:43:51;;;;;;;6.37;3.20;;;13.50;99.90;;;;;;4142109;28;20436;-69
2021/09/19 01:45:52;;;;;;;6.73;3.00;;;13.50;99.90;;;;;;4141352;28;20028;-69
2021/09/19 01:47:53;;;;;;;5.00;2.90;;;13.30;99.90;;;;;;4141052;28;20525;-73
2021/09/19 01:49:54;;;;;;;6.57;3.20;;;13.30;99.90;;;;;;4141446;28;20042;-69
2021/09/19 01:51:56;;;;;;;3.43;2.87;;;13.30;99.90;;;;;;4140853;28;20092;-68
2021/09/19 01:53:57;;;;;;;3.97;3.03;;;13.30;99.90;;;;;;4141637;28;20042;-69
2021/09/19 01:55:58;;;;;;;3.40;2.50;;;13.30;99.90;;;;;;4140221;28;20033;-69
2021/09/19 01:57:59;;;;;;;4.37;2.70;;;13.20;99.90;;;;;;4141474;28;20084;-68
2021/09/19 02:00:00;;;;;;;6.23;3.00;;;13.20;99.90;;;;;;4140560;28;20084;-69
2021/09/19 02:02:02;;;;;;;3.27;2.93;;;13.30;99.90;;;;;;4141589;28;20084;-77
2021/09/19 02:04:03;;;;;;;3.53;2.80;;;13.20;99.90;;;;;;4140219;28;21056;-69
2021/09/19 02:06:06;;;;;;;3.87;2.93;;;13.30;99.90;;;;;;4141581;28;20100;-68
2021/09/19 02:08:08;;;;;;;4.10;2.70;;;13.30;99.90;;;;;;4140250;28;20620;-69
2021/09/19 02:10:13;;;;;;;3.53;2.73;;;13.30;99.90;;;;;;4141754;28;20470;-68
2021/09/19 02:12:15;;;;;;;2.73;2.50;;;13.30;99.90;;;;;;4140409;28;20030;-68
2021/09/19 02:14:16;;;;;;;4.47;2.80;;;13.30;99.90;;;;;;4141458;28;20149;-69
2021/09/19 02:16:20;;;;;;;3.13;2.60;;;13.40;99.90;;;;;;4140420;28;20060;-70
2021/09/19 02:18:22;;;;;;;3.37;2.50;;;13.40;99.90;;;;;;4141127;28;20073;-68
2021/09/19 02:20:23;;;;;;;5.50;3.07;;;13.30;99.90;;;;;;4140813;28;20429;-69
2021/09/19 02:22:24;;;;;;;3.43;3.03;;;13.40;99.90;;;;;;4141150;28;20161;-72
2021/09/19 02:24:25;;;;;;;4.87;3.33;;;13.40;99.90;;;;;;4140538;28;20436;-69
2021/09/19 02:26:26;;;;;;;5.43;3.10;;;13.40;99.90;;;;;;4139943;28;20083;-69
2021/09/19 02:28:28;;;;;;;4.40;2.87;;;13.40;99.90;;;;;;4141082;28;20092;-69
2021/09/19 02:30:29;;;;;;;5.07;3.27;;;13.30;99.90;;;;;;4139799;28;20022;-71
2021/09/19 02:32:30;;;;;;;3.63;3.13;;;13.30;99.90;;;;;;4140991;28;20030;-68
2021/09/19 02:34:31;;;;;;;3.27;2.93;;;13.30;99.90;;;;;;4140082;28;20041;-68
2021/09/19 02:36:32;;;;;;;3.87;3.20;;;13.30;99.90;;;;;;4140847;28;20636;-69
2021/09/19 02:38:34;;;;;;;3.27;2.80;;;13.30;99.90;;;;;;4139751;28;20037;-70
2021/09/19 02:40:35;;;;;;;4.00;3.10;;;13.30;99.90;;;;;;4141622;28;20029;-68
2021/09/19 02:42:37;;;;;;;3.53;2.83;;;13.40;99.90;;;;;;4140168;28;20034;-69
2021/09/19 02:44:38;;;;;;;4.83;2.67;;;13.40;99.90;;;;;;4139303;28;20041;-69
2021/09/19 02:46:39;;;;;;;3.77;2.90;;;13.40;99.90;;;;;;4139258;28;20053;-69
2021/09/19 02:48:40;;;;;;;3.20;2.90;;;13.40;99.90;;;;;;4144128;28;20111;-69
2021/09/19 02:50:41;;;;;;;5.43;3.63;;;13.50;99.90;;;;;;4146011;28;20038;-68
2021/09/19 02:52:42;;;;;;;3.30;2.50;;;13.50;99.90;;;;;;4145753;28;20026;-71
2021/09/19 02:54:44;;;;;;;3.33;2.80;;;13.40;99.90;;;;;;4145595;28;20080;-68
2021/09/19 02:56:45;;;;;;;3.90;2.97;;;13.40;99.90;;;;;;4145426;28;20033;-70
2021/09/19 02:58:46;;;;;;;4.33;2.40;;;13.40;99.90;;;;;;4146381;28;20081;-69
2021/09/19 03:00:47;;;;;;;3.47;2.77;;;13.40;99.90;;;;;;4145181;28;20192;-70
2021/09/19 03:02:49;;;;;;;3.33;2.70;;;13.40;99.90;;;;;;4146433;28;20438;-68
2021/09/19 03:04:51;;;;;;;3.57;2.93;;;13.40;99.90;;;;;;4145215;28;20022;-69
2021/09/19 03:06:52;;;;;;;4.40;3.20;;;13.40;99.90;;;;;;4144353;28;20058;-69
2021/09/19 03:08:53;;;;;;;3.03;2.67;;;13.40;99.90;;;;;;4144907;28;20041;-69
2021/09/19 03:10:55;;;;;;;3.20;2.70;;;13.50;99.90;;;;;;4146505;28;20091;-68
2021/09/19 03:12:56;;;;;;;3.00;2.70;;;13.50;99.90;;;;;;4145076;28;20468;-70
2021/09/19 03:14:57;;;;;;;2.93;2.73;;;13.50;99.90;;;;;;4146218;28;20046;-75
2021/09/19 03:16:58;;;;;;;3.87;2.40;;;13.50;99.90;;;;;;4145161;28;20041;-68
2021/09/19 03:18:59;;;;;;;4.93;2.83;;;13.50;99.90;;;;;;4145898;28;20099;-69
2021/09/19 03:21:00;;;;;;;3.57;2.53;;;13.50;99.90;;;;;;4145808;28;20080;-69
2021/09/19 03:23:03;;;;;;;3.20;2.60;;;13.50;99.90;;;;;;4146077;28;20038;-68
2021/09/19 03:25:05;;;;;;;8.13;2.80;;;13.60;99.90;;;;;;4145755;28;20509;-68
2021/09/19 03:27:07;;;;;;;3.87;2.80;;;13.60;99.90;;;;;;4145543;28;20092;-68
2021/09/19 03:29:08;;;;;;;3.90;2.67;;;13.60;99.90;;;;;;4145674;28;20096;-72
2021/09/19 03:31:09;;;;;;;2.97;2.67;;;13.60;99.90;;;;;;4144213;28;20033;-69
2021/09/19 03:33:10;;;;;;;4.87;3.10;;;13.60;99.90;;;;;;4146276;28;20465;-68
2021/09/19 03:35:12;;;;;;;3.73;2.70;;;13.50;99.90;;;;;;4144643;28;20034;-68
2021/09/19 03:37:13;;;;;;;5.10;2.70;;;13.50;99.90;;;;;;4145963;28;20048;-68
2021/09/19 03:39:14;;;;;;;5.47;2.77;;;13.50;99.90;;;;;;4144937;28;20544;-68
2021/09/19 03:41:15;;;;;;;4.67;2.87;;;13.40;99.90;;;;;;4145994;28;20088;-73
2021/09/19 03:43:16;;;;;;;3.90;2.77;;;13.40;99.90;;;;;;4144505;28;20076;-68
2021/09/19 03:45:18;;;;;;;4.20;2.83;;;13.50;99.90;;;;;;4145930;28;20038;-70
2021/09/19 03:47:19;;;;;;;3.33;2.03;;;13.50;99.90;;;;;;4144680;28;20111;-68
2021/09/19 03:49:20;;;;;;;3.27;2.97;;;13.60;99.90;;;;;;4143919;28;20053;-72
2021/09/19 03:51:21;;;;;;;4.23;2.33;;;13.60;99.90;;;;;;4145067;28;20440;-75
2021/09/19 03:53:23;;;;;;;7.27;3.00;;;13.60;99.90;;;;;;4145738;28;20080;-70
2021/09/19 03:55:24;;;;;;;3.63;2.70;;;13.60;99.90;;;;;;4145334;28;20038;-69
2021/09/19 03:57:25;;;;;;;2.53;2.30;;;13.60;99.90;;;;;;4145143;28;20041;-73
2021/09/19 03:59:27;;;;;;;2.57;2.37;;;13.60;99.90;;;;;;4144226;28;20030;-67
2021/09/19 04:01:28;;;;;;;3.33;2.60;;;13.70;99.90;;;;;;4141745;28;20458;-72
2021/09/19 04:03:29;;;;;;;4.77;2.70;;;13.60;99.90;;;;;;4143292;28;20433;-69
2021/09/19 04:05:30;;;;;;;3.00;2.60;;;13.70;99.90;;;;;;4142094;28;20033;-69
2021/09/19 04:07:31;;;;;;;5.53;2.77;;;13.70;99.90;;;;;;4143735;28;20034;-69
2021/09/19 04:09:33;;;;;;;3.83;3.10;;;13.70;99.90;;;;;;4141913;28;20053;-69
2021/09/19 04:11:34;;;;;;;2.53;2.33;;;13.80;99.90;;;;;;4143498;28;20045;-68
2021/09/19 04:13:35;;;;;;;3.00;2.33;;;13.80;99.90;;;;;;4142116;28;20065;-68
2021/09/19 04:15:36;;;;;;;6.90;2.80;;;13.80;99.90;;;;;;4143015;28;20092;-69
2021/09/19 04:17:38;;;;;;;3.10;2.50;;;13.70;99.90;;;;;;4142105;28;20042;-70
2021/09/19 04:19:39;;;;;;;4.97;2.87;;;13.80;99.90;;;;;;4143694;28;20490;-69
2021/09/19 04:21:40;;;;;;;6.47;2.80;;;13.70;99.90;;;;;;4142013;28;20026;-70
2021/09/19 04:23:41;;;;;;;4.13;3.03;;;13.70;99.90;;;;;;4142772;28;20442;-69
2021/09/19 04:25:42;;;;;;;5.03;2.37;;;13.80;99.90;;;;;;4142099;28;20026;-68
2021/09/19 04:27:44;;;;;;;4.30;2.80;;;13.80;99.90;;;;;;4141912;28;20090;-68
2021/09/19 04:29:45;;;;;;;3.13;2.23;;;13.80;99.90;;;;;;4142606;28;20376;-69
2021/09/19 04:31:46;;;;;;;3.00;2.37;;;13.70;99.90;;;;;;4141817;28;20064;-68
2021/09/19 04:33:47;;;;;;;5.10;3.20;;;13.70;99.90;;;;;;4142722;28;20100;-69
2021/09/19 04:35:48;;;;;;;4.63;2.43;;;13.80;99.90;;;;;;4141690;28;20041;-68
2021/09/19 04:37:49;;;;;;;2.50;2.03;;;13.80;99.90;;;;;;4142966;28;20469;-69
2021/09/19 04:39:50;;;;;;;5.57;2.93;;;13.80;99.90;;;;;;4141490;28;20088;-70
2021/09/19 04:41:52;;;;;;;2.83;2.20;;;13.80;99.90;;;;;;4142650;28;20034;-69
2021/09/19 04:43:53;;;;;;;4.23;3.20;;;13.80;99.90;;;;;;4141196;28;20065;-68
2021/09/19 04:45:54;;;;;;;2.53;2.33;;;13.80;99.90;;;;;;4143007;28;20343;-68
2021/09/19 04:47:55;;;;;;;5.53;2.40;;;13.80;99.90;;;;;;4140890;28;20054;-68
2021/09/19 04:49:56;;;;;;;5.67;2.50;;;13.80;99.90;;;;;;4143251;28;20096;-68
2021/09/19 04:51:57;;;;;;;4.67;2.83;;;13.80;99.90;;;;;;4141108;28;20042;-69
2021/09/19 04:53:58;;;;;;;3.90;2.67;;;13.80;99.90;;;;;;4141755;28;20431;-68
2021/09/19 04:56:00;;;;;;;6.23;3.20;;;13.80;99.90;;;;;;4141730;28;20413;-68
2021/09/19 04:58:01;;;;;;;4.27;2.70;;;13.80;99.90;;;;;;4141475;28;20502;-70
2021/09/19 05:00:04;;;;;;;3.60;2.50;;;13.90;99.90;;;;;;4141996;28;20030;-69
2021/09/19 05:02:05;;;;;;;5.40;3.10;;;13.90;99.90;;;;;;4141126;28;20064;-68
2021/09/19 05:04:06;;;;;;;3.40;2.90;;;13.80;99.90;;;;;;4142696;28;20071;-70
2021/09/19 05:06:07;;;;;;;4.77;3.10;;;13.80;99.90;;;;;;4141215;28;20440;-68
2021/09/19 05:08:09;;;;;;;4.77;2.97;;;13.80;99.90;;;;;;4142207;28;20467;-68
2021/09/19 05:10:10;;;;;;;3.03;2.63;;;13.70;99.90;;;;;;4140895;28;20465;-70
2021/09/19 05:12:11;;;;;;;6.43;2.67;;;13.70;99.90;;;;;;4142066;28;20033;-69
2021/09/19 05:14:13;;;;;;;5.43;2.90;;;13.70;99.90;;;;;;4140643;28;20041;-68
2021/09/19 05:16:14;;;;;;;5.30;2.53;;;13.60;99.90;;;;;;4142140;28;20548;-75
2021/09/19 05:18:15;;;;;;;4.63;3.40;;;13.60;99.90;;;;;;4140946;28;20437;-68
2021/09/19 05:20:16;;;;;;;8.53;3.00;;;13.60;99.90;;;;;;4142721;28;20030;-69
2021/09/19 05:22:17;;;;;;;5.67;3.83;;;13.60;99.90;;;;;;4140808;28;20092;-69
2021/09/19 05:24:18;;;;;;;3.70;3.13;;;13.60;99.90;;;;;;4141996;28;20034;-68
2021/09/19 05:26:19;;;;;;;3.87;3.07;;;13.60;99.90;;;;;;4141162;28;20561;-69
2021/09/19 05:28:21;;;;;;;5.67;3.10;;;13.60;99.90;;;;;;4141348;28;20050;-68
2021/09/19 05:30:22;;;;;;;3.90;3.20;;;13.60;99.90;;;;;;4141919;28;20486;-68
2021/09/19 05:32:23;;;;;;;2.90;2.67;;;13.60;99.90;;;;;;4140625;28;20652;-68
2021/09/19 05:34:25;;;;;;;4.57;3.03;;;13.70;99.90;;;;;;4141750;28;20065;-69
2021/09/19 05:36:26;;;;;;;3.60;2.63;;;13.70;99.90;;;;;;4140340;28;20096;-69
2021/09/19 05:38:27;;;;;;;4.67;2.90;;;13.70;99.90;;;;;;4141956;28;20037;-68
2021/09/19 05:40:28;;;;;;;19.50;3.60;;;13.80;99.90;;;;;;4138351;28;20038;-68
2021/09/19 05:42:29;;;;;;;7.77;3.50;;;13.90;99.90;;;;;;4141467;28;20025;-69
2021/09/19 05:44:30;;;;;;;4.67;2.63;;;14.00;99.90;;;;;;4140377;28;20038;-70
2021/09/19 05:46:32;;;;;;;4.10;2.73;;;14.10;99.90;;;;;;4141779;28;20441;-69
2021/09/19 05:48:33;;;;;;;4.67;3.13;;;14.50;99.90;;;;;;4140022;28;20498;-69
2021/09/19 05:50:34;;;;;;;5.13;3.20;;;14.50;99.90;;;;;;4142202;28;20053;-69
2021/09/19 05:52:35;;;;;;;3.37;2.90;;;14.60;99.90;;;;;;4140257;28;20108;-69
2021/09/19 05:54:36;;;;;;;5.70;3.07;;;14.70;99.90;;;;;;4141558;28;20915;-70
2021/09/19 05:56:37;;;;;;;6.73;3.20;;;14.70;99.90;;;;;;4140779;28;20441;-71
2021/09/19 05:58:38;;;;;;;4.67;3.23;;;14.90;99.90;;;;;;4140873;28;20434;-68
2021/09/19 06:00:39;;;;;;;3.63;2.97;;;15.30;99.90;;;;;;4140916;28;20084;-69
2021/09/19 06:02:41;;;;;;;6.93;3.00;;;15.90;99.90;;;;;;4140614;28;20038;-69
2021/09/19 06:04:42;;;;;;;3.10;2.80;;;16.60;99.90;;;;;;4141499;28;20425;-71
2021/09/19 06:06:43;;;;;;;4.70;3.22;;;17.40;99.90;;;;;;4140331;28;20029;-70
2021/09/19 06:08:44;;;;;;;5.10;3.58;;;18.00;99.90;;;;;;4141498;28;20054;-68
2021/09/19 06:10:45;;;;;;;3.40;2.72;;;18.50;99.90;;;;;;4140144;28;20092;-67
2021/09/19 06:12:46;;;;;;;4.35;2.92;;;19.00;99.90;;;;;;4141466;28;20025;-67
2021/09/19 06:14:49;;;;;;;3.20;2.45;;;19.50;99.90;;;;;;4140735;28;20084;-68
2021/09/19 06:16:50;;;;;;;3.33;2.50;;;20.00;99.90;;;;;;4140053;28;20081;-68
2021/09/19 06:18:51;;;;;;;4.18;2.42;;;20.40;99.90;;;;;;4139764;28;20038;-68
2021/09/19 06:20:52;;;;;;;3.92;2.30;;;20.60;99.90;;;;;;4141455;28;20441;-69
2021/09/19 06:22:54;;;;;;;3.05;1.90;;;20.40;99.90;;;;;;4138944;28;20038;-71
2021/09/19 06:24:55;;;;;;;5.88;2.42;;;20.60;99.90;;;;;;4141227;28;20030;-71
2021/09/19 06:26:58;;;;;;;2.33;2.13;;;20.80;99.90;;;;;;4140086;28;20033;-71
2021/09/19 06:28:59;;;;;;;2.75;2.22;;;21.00;99.90;;;;;;4140317;28;20115;-68
2021/09/19 06:31:00;;;;;;;2.75;1.73;;;21.10;99.70;;;;;;4140479;28;20124;-69
2021/09/19 06:33:02;;;;;;;1.77;1.65;;;21.50;99.20;;;;;;4139907;28;20026;-68
2021/09/19 06:35:03;;;;;;;2.28;1.65;;;21.90;98.70;;;;;;4140448;28;20423;-67
2021/09/19 06:37:06;;;;;;;3.40;1.92;;;21.90;98.50;;;;;;4138787;28;20103;-67
2021/09/19 06:39:07;;;;;;;1.85;1.65;;;22.00;98.20;;;;;;4141055;28;20034;-67
2021/09/19 06:41:08;;;;;;;2.17;1.95;;;22.20;97.80;;;;;;4139547;28;20114;-67
2021/09/19 06:43:10;;;;;;;7.63;1.90;;;22.30;97.40;;;;;;4141346;28;20363;-69
2021/09/19 06:45:11;;;;;;;1.92;1.73;;;22.30;97.10;;;;;;4139266;28;20073;-67
2021/09/19 06:47:12;;;;;;;3.55;1.67;;;22.40;96.80;;;;;;4139220;28;20034;-70
2021/09/19 06:49:13;;;;;;;9.50;2.13;;;22.40;96.70;;;;;;4139768;28;20053;-69
2021/09/19 06:51:15;;;;;;;2.47;1.60;;;22.50;96.50;;;;;;4141197;28;20544;-67
2021/09/19 06:53:16;;;;;;;2.10;1.90;;;22.80;96.20;;;;;;4139535;28;20072;-66
2021/09/19 06:55:17;;;;;;;2.30;2.10;;;22.80;95.80;;;;;;4139179;28;20120;-69
2021/09/19 06:57:18;;;;;;;4.47;2.05;;;22.00;95.50;;;;;;4139943;28;20422;-71
2021/09/19 06:59:19;;;;;;;3.88;2.78;;;21.40;96.20;;;;;;4140320;28;20038;-70
2021/09/19 07:01:22;;;;;;;4.80;2.80;;;21.30;96.70;;;;;;4139901;28;20026;-68
2021/09/19 07:03:23;;;;;;;3.20;2.90;;;21.40;96.50;;;;;;4139881;28;20173;-67
2021/09/19 07:05:24;;;;;;;3.22;2.15;;;21.80;96.30;;;;;;4140711;28;20085;-68
2021/09/19 07:07:26;;;;;;;3.72;2.55;;;22.30;95.70;;;;;;4139508;28;20029;-67
2021/09/19 07:09:27;;;;;;;2.05;1.85;;;22.50;95.30;;;;;;4140643;28;20151;-67
2021/09/19 07:11:28;;;;;;;3.15;2.72;;;22.80;94.80;;;;;;4139447;28;20522;-69
2021/09/19 07:13:29;;;;;;;3.17;1.98;;;22.20;94.60;;;;;;4140818;28;20026;-69
2021/09/19 07:15:30;;;;;;;4.15;2.88;;;21.80;95.40;;;;;;4139305;28;20025;-68
2021/09/19 07:17:32;;;;;;;4.40;2.80;;;22.00;95.50;;;;;;4140820;28;20493;-68
2021/09/19 07:19:33;;;;;;;4.93;2.30;;;22.00;95.50;;;;;;4139217;28;20548;-68
2021/09/19 07:21:34;;;;;;;3.03;2.08;;;22.10;95.10;;;;;;4141402;28;20108;-69
2021/09/19 07:23:35;;;;;;;3.92;2.20;;;22.20;94.70;;;;;;4139221;28;20045;-67
2021/09/19 07:25:37;;;;;;;3.40;2.03;;;21.80;94.50;;;;;;4140639;28;20735;-70
2021/09/19 07:27:38;;;;;;;3.75;2.40;;;21.50;94.90;;;;;;4138876;28;20100;-74
2021/09/19 07:29:40;;;;;;;3.83;1.70;;;21.20;95.10;;;;;;4139759;28;20038;-69
2021/09/19 07:31:41;;;;;;;3.20;1.67;;;21.50;95.10;;;;;;4139778;28;20840;-68
2021/09/19 07:33:42;;;;;;;2.33;1.30;;;21.60;94.90;;;;;;4139838;28;20037;-68
2021/09/19 07:35:44;;;;;;;2.38;1.23;;;22.00;94.30;;;;;;4140609;28;20034;-69
2021/09/19 07:37:46;;;;;;;2.88;1.10;;;22.30;94.00;;;;;;4141898;28;20803;-70
2021/09/19 07:39:47;;;;;;;1.55;1.23;;;22.60;93.60;;;;;;4142391;28;20092;-72
2021/09/19 07:41:52;;;;;;;1.02;1.02;;;22.80;93.10;;;;;;4141981;28;20470;-68
2021/09/19 07:43:54;;;;;;;1.50;1.38;;;22.60;92.90;;;;;;4143462;28;20030;-70
2021/09/19 07:45:55;;;;;;;4.65;1.70;;;22.40;93.10;;;;;;4141570;28;20022;-70
2021/09/19 07:47:58;;;;;;;4.28;2.40;;;22.40;93.20;;;;;;4141369;28;20042;-69
2021/09/19 07:49:59;;;;;;;3.10;2.20;;;22.30;93.20;;;;;;4142219;28;20099;-68
2021/09/19 07:52:01;;;;;;;1.95;1.77;;;21.90;93.50;;;;;;4143770;28;20092;-68
2021/09/19 07:54:02;;;;;;;2.28;2.08;;;21.70;93.80;;;;;;4141801;28;20050;-67
2021/09/19 07:56:03;;;;;;;2.38;2.17;;;21.40;94.00;;;;;;4143415;28;20425;-67
2021/09/19 07:58:04;;;;;;;1.92;1.80;;;21.40;94.00;;;;;;4142026;28;20029;-67
2021/09/19 08:00:06;;;;;;;3.95;2.30;;;20.90;94.30;;;;;;4143003;28;20104;-67
2021/09/19 08:02:08;;;;;;;5.60;2.30;;;20.80;94.30;;;;;;4141835;28;20072;-69
2021/09/19 08:04:09;;;;;;;2.28;1.88;;;20.30;94.70;;;;;;4142325;28;20100;-67
2021/09/19 08:06:10;;;;;;;5.72;1.85;;;19.90;95.10;;;;;;4142317;28;20018;-68
2021/09/19 08:08:12;;;;;;;2.70;2.20;;;19.80;95.40;;;;;;4141636;28;20046;-67
2021/09/19 08:10:14;;;;;;;5.07;2.50;;;19.80;95.30;;;;;;4142649;28;20588;-67
2021/09/19 08:12:15;;;;;;;4.28;2.08;;;19.90;95.30;;;;;;4141479;28;20639;-68
2021/09/19 08:14:16;;;;;;;2.40;2.20;;;20.40;95.10;;;;;;4142689;28;20506;-69
2021/09/19 08:16:17;;;;;;;2.55;1.88;;;20.80;94.70;;;;;;4141779;28;20443;-68
2021/09/19 08:18:18;;;;;;;0.60;0.60;;;21.10;94.20;;;;;;4142532;28;20445;-67
2021/09/19 08:20:19;;;;;;;2.25;1.60;;;21.20;93.40;;;;;;4141549;28;20080;-68
2021/09/19 08:22:21;;;;;;;1.67;0.90;;;20.90;93.20;;;;;;4142822;28;20371;-69
2021/09/19 08:24:23;;;;;;;0.45;0.40;;;21.10;93.00;;;;;;4140907;28;20112;-67
2021/09/19 08:26:24;;;;;;;0.80;0.70;;;21.20;92.60;;;;;;4142288;28;20431;-67
2021/09/19 08:28:25;;;;;;;3.30;1.00;;;20.90;92.50;;;;;;4141412;28;20045;-68
2021/09/19 08:30:26;;;;;;;3.58;1.35;;;20.70;92.70;;;;;;4141898;28;20088;-67
2021/09/19 08:32:28;;;;;;;3.20;1.10;;;20.20;92.70;;;;;;4141591;28;20080;-68
2021/09/19 08:34:29;;;;;;;2.38;1.00;;;19.80;93.20;;;;;;4142073;28;20498;-67
2021/09/19 08:36:30;;;;;;;0.90;0.70;;;19.80;93.50;;;;;;4141884;28;20034;-68
2021/09/19 08:38:31;;;;;;;1.30;0.70;;;20.00;93.50;;;;;;4141719;28;20056;-69
2021/09/19 08:40:33;;;;;;;2.30;1.20;;;20.20;93.30;;;;;;4142318;28;20329;-67
2021/09/19 08:42:36;;;;;;;3.25;0.95;;;20.30;93.20;;;;;;4140877;28;20045;-68
2021/09/19 08:44:38;;;;;;;1.17;0.88;;;20.30;93.10;;;;;;4142561;28;20547;-69
2021/09/19 08:46:39;;;;;;;1.95;0.90;;;20.30;93.10;;;;;;4140286;28;20072;-68
2021/09/19 08:48:40;;;;;;;1.08;0.90;;;20.20;92.60;;;;;;4142259;28;20108;-68
2021/09/19 08:50:42;;;;;;;4.22;2.30;;;19.90;93.10;;;;;;4141623;28;20417;-69
2021/09/19 08:52:44;;;;;;;2.20;1.92;;;19.80;93.20;;;;;;4142316;28;20092;-68
2021/09/19 08:54:46;;;;;;;5.53;1.70;;;19.70;93.20;;;;;;4141093;28;20021;-69
2021/09/19 08:56:47;;;;;;;11.65;2.80;;;19.70;93.10;;;;;;4141848;28;20485;-70
2021/09/19 08:58:48;;;;;;;5.10;1.92;;;19.70;93.10;;;;;;4140815;28;20096;-70
2021/09/19 09:00:50;;;;;;;7.93;2.20;;;19.50;92.90;;;;;;4140710;28;20053;-69
2021/09/19 09:02:54;;;;;;;10.43;1.98;;;19.40;92.90;;;;;;4140082;28;20092;-68
2021/09/19 09:04:57;;;;;;;1.00;0.65;;;19.30;93.00;;;;;;4141386;28;20022;-69
2021/09/19 09:06:59;;;;;;;0.73;0.73;;;19.30;93.00;;;;;;4141008;28;20092;-70
2021/09/19 09:09:13;;;;;;;0.60;0.60;;;19.30;92.90;;;;;;4141579;28;20038;-70
2021/09/19 09:11:15;;;;;;;0.80;0.60;;;19.30;92.70;;;;;;4141149;28;20025;-68
2021/09/19 09:13:25;;;;;;;2.70;1.17;;;19.30;92.80;;;;;;4141402;28;20068;-68
2021/09/19 09:16:05;;;;;;;8.30;1.50;;;19.50;92.80;;;;;;4141112;28;20520;-68
2021/09/19 09:18:07;;;;;;;;;;;19.80;92.10;;;;;;4138638;28;20030;-69
2021/09/19 09:20:08;;;;;;;1.48;0.75;;;20.10;92.00;;;;;;4140617;28;19972;-68
2021/09/19 09:22:09;;;;;;;3.08;0.85;;;20.40;92.00;;;;;;4141412;28;20034;-69
2021/09/19 09:24:15;;;;;;;2.00;0.88;;;20.70;91.50;;;;;;4140453;28;20646;-69
2021/09/19 09:26:16;;;;;;;4.82;1.50;;;21.00;91.20;;;;;;4140758;28;20107;-69
2021/09/19 09:28:17;;;;;;;4.78;1.10;;;20.90;90.80;;;;;;4140821;28;20498;-68
2021/09/19 09:30:25;;;;;;;5.53;2.08;;;20.70;90.80;;;;;;4140294;28;20104;-68
2021/09/19 09:32:26;;;;;;;2.75;1.40;;;20.50;91.30;;;;;;4141111;28;20056;-68
2021/09/19 09:34:27;;;;;;;1.85;1.23;;;20.50;91.30;;;;;;4140040;28;20033;-67
2021/09/19 09:36:33;;;;;;;1.73;1.63;;;20.40;91.10;;;;;;4141335;28;20401;-67
2021/09/19 09:38:37;;;;;;;2.65;2.38;;;20.30;91.10;;;;;;4139988;28;20080;-74
2021/09/19 09:40:38;;;;;;;2.08;1.50;;;20.20;91.10;;;;;;4141429;28;20575;-71
2021/09/19 09:42:39;;;;;;;4.28;1.98;;;20.10;91.20;;;;;;4140121;28;20080;-67
2021/09/19 09:44:48;;;;;;;8.73;2.67;;;20.10;91.30;;;;;;4141107;28;20513;-69
2021/09/19 09:46:50;;;;;;;4.87;1.63;;;20.10;91.50;;;;;;4140368;28;20038;-70
2021/09/19 09:48:51;;;;;;;3.15;1.73;;;20.30;91.30;;;;;;4141300;28;20050;-71
2021/09/19 09:50:53;;;;;;;1.00;0.90;;;20.20;91.20;;;;;;4140305;28;20176;-70
2021/09/19 09:53:11;;;;;;;2.00;0.98;;;20.10;91.20;;;;;;4141470;28;20432;-70
2021/09/19 09:55:13;;;;;;;0.70;0.65;;;19.80;90.90;;;;;;4138696;28;20042;-69
2021/09/19 09:57:52;;;;;;;1.60;0.57;;;20.00;91.20;;;;;;4139261;28;20080;-71
2021/09/19 09:59:54;;;;;;;1.23;0.90;;;20.40;90.70;;;;;;4131260;28;20583;-69
2021/09/19 10:02:01;;;;;;;1.42;1.25;;;20.70;90.80;;;;;;4141161;28;20045;-69
2021/09/19 10:04:04;;;;;;;2.15;1.95;;;20.80;90.80;;;;;;4139872;28;20033;-69
2021/09/19 10:06:05;;;;;;;2.10;1.52;;;20.70;90.70;;;;;;4141353;28;20092;-69
2021/09/19 10:08:06;;;;;;;2.78;1.23;;;20.80;90.90;;;;;;4139605;28;20501;-70
2021/09/19 10:10:10;;;;;;;11.35;2.15;;;20.90;90.60;;;;;;4140821;28;20026;-70
2021/09/19 10:12:11;;;;;;;7.82;4.10;;;20.80;90.70;;;;;;4139307;28;20038;-68
2021/09/19 10:14:12;;;;;;;4.00;2.20;;;20.80;90.60;;;;;;4140779;28;20544;-75
2021/09/19 10:16:17;;;;;;;1.42;0.40;;;20.80;90.50;;;;;;4139915;28;20022;-69
2021/09/19 10:18:18;;;;;;;1.80;0.43;;;20.80;90.40;;;;;;4140384;28;20037;-69
2021/09/19 10:20:26;;;;;;;0.70;0.43;;;20.80;90.50;;;;;;4140289;28;20092;-69
2021/09/19 10:22:43;;;;;;;0.57;0.50;;;20.70;90.60;;;;;;4139119;28;20049;-69
2021/09/19 10:24:44;;;;;;;0.95;0.50;;;20.60;90.20;;;;;;4140089;28;20046;-67
2021/09/19 10:26:57;;;;;;;4.57;2.50;;;20.50;90.70;;;;;;4137889;28;20095;-68
2021/09/19 10:29:00;;;;;;;1.80;1.30;;;20.40;90.70;;;;;;4140207;28;20379;-68
2021/09/19 10:31:19;;;;;;;0.90;0.70;;;20.40;90.90;;;;;;4139839;28;20073;-69
2021/09/19 10:33:36;;;;;;;2.38;1.52;;;20.30;91.10;;;;;;4140467;28;20034;-69
2021/09/19 10:35:37;;;;;;;1.02;0.90;;;20.20;91.30;;;;;;4140118;28;20092;-68